Time;durP1;ratioP1;P1;durP2;ratioP2;P2;SDS_P1;SDS_P2;PMS_P1;PMS_P2;Temp;Humidity;BMP_temperature;BMP_pressure;BME280_temperature;BME280_humidity;BME280_pressure;Samples;Min_cycle;Max_cycle;Signal;HPM_P1;HPM_P2
2022/06/01 00:01:51;;;;;;;16.45;14.43;;;11.50;99.90;;;;;;5113157;28;20051;-64
2022/06/01 00:04:19;;;;;;;15.45;13.95;;;11.40;99.90;;;;;;5115568;28;20047;-64
2022/06/01 00:06:45;;;;;;;15.85;14.23;;;11.40;99.90;;;;;;5136428;27;20429;-65
2022/06/01 00:09:11;;;;;;;16.45;14.80;;;11.40;99.90;;;;;;5125976;27;20096;-65
2022/06/01 00:11:36;;;;;;;15.63;14.07;;;11.40;99.90;;;;;;5093683;28;20048;-64
2022/06/01 00:14:03;;;;;;;17.70;13.68;;;11.40;99.90;;;;;;5106721;28;20491;-65
2022/06/01 00:16:28;;;;;;;15.05;13.23;;;11.50;99.90;;;;;;5148111;27;20051;-65
2022/06/01 00:18:54;;;;;;;16.65;13.80;;;11.30;99.90;;;;;;5134495;27;20058;-65
2022/06/01 00:21:20;;;;;;;15.45;13.88;;;11.30;99.90;;;;;;5094708;28;20044;-65
2022/06/01 00:23:45;;;;;;;15.60;13.77;;;11.30;99.90;;;;;;5105611;28;20181;-64
2022/06/01 00:26:11;;;;;;;13.07;11.73;;;11.20;99.90;;;;;;5136948;27;20776;-65
2022/06/01 00:28:37;;;;;;;15.10;13.50;;;11.20;99.90;;;;;;5106299;28;20044;-64
2022/06/01 00:31:03;;;;;;;15.55;13.70;;;11.10;99.90;;;;;;5106002;28;20591;-65
2022/06/01 00:33:29;;;;;;;14.60;13.10;;;11.10;99.90;;;;;;5110042;28;20043;-65
2022/06/01 00:35:55;;;;;;;14.52;13.02;;;11.10;99.90;;;;;;5115565;28;20078;-64
2022/06/01 00:38:21;;;;;;;14.90;13.35;;;11.00;99.90;;;;;;5106188;28;20442;-65
2022/06/01 00:40:47;;;;;;;17.55;14.90;;;11.00;99.90;;;;;;5120334;27;20061;-65
2022/06/01 00:43:36;;;;;;;17.13;14.00;;;11.10;99.90;;;;;;5102950;27;20053;-64
2022/06/01 00:46:02;;;;;;;15.18;13.32;;;11.00;99.90;;;;;;5106910;28;20056;-65
2022/06/01 00:48:29;;;;;;;15.95;14.02;;;11.00;99.90;;;;;;5096661;28;20113;-65
2022/06/01 00:50:55;;;;;;;13.82;12.43;;;11.00;99.90;;;;;;5094901;28;20052;-64
2022/06/01 00:53:25;;;;;;;14.43;12.80;;;11.00;99.90;;;;;;5094351;28;20039;-66
2022/06/01 00:56:06;;;;;;;16.05;13.68;;;11.00;99.90;;;;;;5113053;28;20089;-65
2022/06/01 00:58:40;;;;;;;14.50;12.10;;;10.90;99.90;;;;;;5147749;27;20043;-65
2022/06/01 01:01:08;;;;;;;18.33;14.07;;;10.90;99.90;;;;;;5112344;28;20058;-66
2022/06/01 01:03:37;;;;;;;15.10;13.57;;;10.80;99.90;;;;;;5136015;27;20383;-65
2022/06/01 01:06:18;;;;;;;15.27;13.57;;;10.80;99.90;;;;;;5114366;28;20424;-66
2022/06/01 01:08:46;;;;;;;15.90;13.88;;;10.70;99.90;;;;;;5104531;28;20051;-66
2022/06/01 01:11:13;;;;;;;15.50;14.00;;;10.70;99.90;;;;;;5092448;28;20392;-65
2022/06/01 01:13:43;;;;;;;18.35;13.82;;;10.60;99.90;;;;;;5107866;27;20048;-65
2022/06/01 01:16:10;;;;;;;14.93;13.35;;;10.60;99.90;;;;;;5093612;28;20082;-65
2022/06/01 01:18:39;;;;;;;14.15;12.57;;;10.50;99.90;;;;;;5103681;28;20051;-66
2022/06/01 01:21:31;;;;;;;13.70;11.98;;;10.50;99.90;;;;;;5093921;28;20052;-66
2022/06/01 01:24:26;;;;;;;18.20;15.20;;;10.40;99.90;;;;;;5144363;27;20059;-66
2022/06/01 01:26:53;;;;;;;14.82;13.30;;;10.40;99.90;;;;;;5135812;27;20080;-66
2022/06/01 01:29:40;;;;;;;14.10;12.70;;;10.40;99.90;;;;;;5110244;28;20040;-65
2022/06/01 01:32:07;;;;;;;16.05;12.80;;;10.40;99.90;;;;;;5105435;28;20048;-66
2022/06/01 01:34:34;;;;;;;15.95;14.35;;;10.30;99.90;;;;;;5103184;28;20055;-65
2022/06/01 01:37:04;;;;;;;17.60;13.73;;;10.40;99.90;;;;;;5077955;28;20500;-65
2022/06/01 01:39:32;;;;;;;17.17;15.38;;;10.40;99.90;;;;;;5078424;28;20487;-65
2022/06/01 01:41:58;;;;;;;16.55;14.80;;;10.30;99.90;;;;;;5113933;28;20184;-66
2022/06/01 01:44:54;;;;;;;14.90;13.07;;;10.40;99.90;;;;;;5129651;27;20048;-64
2022/06/01 01:47:19;;;;;;;17.85;15.15;;;10.40;99.90;;;;;;5079880;28;20122;-65
2022/06/01 01:49:45;;;;;;;15.95;14.25;;;10.40;99.90;;;;;;5114300;28;20079;-65
2022/06/01 01:52:18;;;;;;;16.52;13.48;;;10.40;99.90;;;;;;5144493;27;20105;-65
2022/06/01 01:55:13;;;;;;;15.98;12.95;;;10.40;99.90;;;;;;5107055;28;20048;-65
2022/06/01 01:57:48;;;;;;;16.95;14.20;;;10.40;99.90;;;;;;5072312;28;20056;-65
2022/06/01 02:00:25;;;;;;;15.57;12.63;;;10.40;99.90;;;;;;5112266;28;20055;-66
2022/06/01 02:03:13;;;;;;;15.23;13.68;;;10.40;99.90;;;;;;5105976;28;20184;-66
2022/06/01 02:06:09;;;;;;;15.30;13.30;;;10.40;99.90;;;;;;5072593;28;20203;-65
2022/06/01 02:08:56;;;;;;;15.40;13.80;;;10.40;99.90;;;;;;5089117;28;20071;-65
2022/06/01 02:14:17;;;;;;;15.65;13.90;;;11.00;99.90;;;;;;5088237;28;20045;-66
2022/06/01 02:16:48;;;;;;;14.90;13.23;;;10.50;99.90;;;;;;5132981;27;20060;-64
2022/06/01 02:19:20;;;;;;;16.67;15.02;;;10.50;99.90;;;;;;5147010;27;20047;-66
2022/06/01 02:21:46;;;;;;;16.92;15.13;;;10.50;99.90;;;;;;5126232;27;20048;-66
2022/06/01 02:24:11;;;;;;;16.50;14.80;;;10.50;99.90;;;;;;5113415;28;20043;-66
2022/06/01 02:26:37;;;;;;;17.45;15.02;;;10.50;99.90;;;;;;5101048;28;20055;-65
2022/06/01 02:29:14;;;;;;;17.27;15.50;;;10.50;99.90;;;;;;5095718;28;20063;-65
2022/06/01 02:31:41;;;;;;;17.00;15.23;;;10.50;99.90;;;;;;5099451;28;20047;-65
2022/06/01 02:34:09;;;;;;;18.58;16.67;;;10.50;99.90;;;;;;5111764;28;20051;-65
2022/06/01 02:36:36;;;;;;;17.98;16.25;;;10.50;99.90;;;;;;5135376;27;20127;-65
2022/06/01 02:39:05;;;;;;;17.92;16.02;;;10.50;99.90;;;;;;5113377;28;20367;-65
2022/06/01 02:44:16;;;;;;;17.90;15.68;;;10.80;99.90;;;;;;5102956;28;20055;-65
2022/06/01 02:46:42;;;;;;;16.48;14.77;;;10.50;99.90;;;;;;5107679;28;20549;-65
2022/06/01 02:49:07;;;;;;;17.38;15.50;;;10.50;99.90;;;;;;5107381;28;20059;-65
2022/06/01 02:51:33;;;;;;;17.30;15.52;;;10.50;99.90;;;;;;5145922;27;20207;-65
2022/06/01 02:53:59;;;;;;;20.80;17.58;;;10.50;99.90;;;;;;5102512;28;20136;-65
2022/06/01 02:56:25;;;;;;;19.60;17.45;;;10.60;99.90;;;;;;5115149;28;20064;-65
2022/06/01 02:58:51;;;;;;;20.02;17.45;;;10.60;99.90;;;;;;5110709;28;20418;-65
2022/06/01 03:01:16;;;;;;;18.13;16.23;;;10.60;99.90;;;;;;5133726;27;20050;-65
2022/06/01 03:03:42;;;;;;;21.70;18.73;;;10.60;99.90;;;;;;5126612;27;20040;-65
2022/06/01 03:06:08;;;;;;;20.00;17.83;;;10.50;99.90;;;;;;5095460;28;20048;-65
2022/06/01 03:08:34;;;;;;;19.25;17.25;;;10.50;99.90;;;;;;5126991;27;20515;-64
2022/06/01 03:11:00;;;;;;;22.33;18.40;;;10.50;99.90;;;;;;5109300;27;20130;-66
2022/06/01 03:13:26;;;;;;;21.30;18.92;;;10.50;99.90;;;;;;5105126;28;20151;-65
2022/06/01 03:15:53;;;;;;;20.58;18.45;;;10.50;99.90;;;;;;5115879;28;20048;-65
2022/06/01 03:18:19;;;;;;;21.65;19.17;;;10.50;99.90;;;;;;5112469;28;20059;-65
2022/06/01 03:20:45;;;;;;;20.38;18.20;;;10.50;99.90;;;;;;5116604;28;20040;-65
2022/06/01 03:23:10;;;;;;;22.10;19.88;;;10.50;99.90;;;;;;5106502;28;20097;-65
2022/06/01 03:25:37;;;;;;;20.30;17.55;;;10.50;99.90;;;;;;5085321;28;20039;-65
2022/06/01 03:28:03;;;;;;;20.35;16.27;;;10.40;99.90;;;;;;5103890;28;20108;-66
2022/06/01 03:30:29;;;;;;;21.25;19.10;;;10.40;99.90;;;;;;5105211;28;20056;-66
2022/06/01 03:32:56;;;;;;;22.08;18.95;;;10.40;99.90;;;;;;5090562;28;20052;-65
2022/06/01 03:35:24;;;;;;;22.55;18.73;;;10.40;99.90;;;;;;5148033;27;20058;-66
2022/06/01 03:37:51;;;;;;;19.75;17.65;;;10.40;99.90;;;;;;5095834;28;20097;-65
2022/06/01 03:40:19;;;;;;;19.88;17.80;;;10.50;99.90;;;;;;5094993;28;20048;-65
2022/06/01 03:42:45;;;;;;;21.27;19.08;;;10.50;99.90;;;;;;5148061;27;20064;-65
2022/06/01 03:47:55;;;;;;;20.50;18.30;;;10.50;99.90;;;;;;5111994;28;20055;-65
2022/06/01 03:50:25;;;;;;;24.73;19.17;;;10.60;99.90;;;;;;5128301;27;20073;-65
2022/06/01 03:52:53;;;;;;;21.23;18.92;;;10.60;99.90;;;;;;5099389;28;20051;-66
2022/06/01 03:55:20;;;;;;;21.73;18.70;;;10.50;99.90;;;;;;5099977;28;20503;-65
2022/06/01 03:57:46;;;;;;;20.00;17.90;;;10.60;99.90;;;;;;5114383;28;20126;-65
2022/06/01 04:00:15;;;;;;;20.20;18.13;;;10.60;99.90;;;;;;5112864;28;20126;-65
2022/06/01 04:02:41;;;;;;;20.30;18.30;;;10.60;99.90;;;;;;5148493;27;20083;-65
2022/06/01 04:05:08;;;;;;;20.98;18.88;;;10.60;99.90;;;;;;5106014;28;20059;-65
2022/06/01 04:07:34;;;;;;;19.92;17.85;;;10.70;99.90;;;;;;5101721;28;20059;-65
2022/06/01 04:10:00;;;;;;;21.20;17.73;;;10.70;99.90;;;;;;5135416;27;20044;-65
2022/06/01 04:12:26;;;;;;;20.58;18.27;;;10.30;99.90;;;;;;5110939;28;20539;-65
2022/06/01 04:14:51;;;;;;;20.23;18.23;;;10.70;99.90;;;;;;5104184;28;20062;-65
2022/06/01 04:17:17;;;;;;;20.58;18.45;;;10.70;99.90;;;;;;5144199;27;20123;-65
2022/06/01 04:19:42;;;;;;;19.58;17.58;;;10.70;99.90;;;;;;5141321;27;20049;-65
2022/06/01 04:22:09;;;;;;;20.25;18.15;;;10.70;99.90;;;;;;5107404;28;20097;-65
2022/06/01 04:24:35;;;;;;;21.02;18.70;;;10.70;99.90;;;;;;5115485;28;20433;-65
2022/06/01 04:27:02;;;;;;;20.48;18.27;;;10.70;99.90;;;;;;5128161;27;20052;-65
2022/06/01 04:29:27;;;;;;;23.50;18.65;;;10.80;99.90;;;;;;5127749;27;20185;-65
2022/06/01 04:32:04;;;;;;;21.10;18.90;;;10.80;99.90;;;;;;5094031;28;20138;-65
2022/06/01 04:34:30;;;;;;;20.92;18.58;;;10.80;99.90;;;;;;5112433;28;20059;-65
2022/06/01 04:36:56;;;;;;;20.90;18.70;;;10.80;99.90;;;;;;5111896;28;20051;-66
2022/06/01 04:39:22;;;;;;;19.92;17.83;;;10.80;99.90;;;;;;5137604;27;20051;-65
2022/06/01 04:41:48;;;;;;;21.63;19.00;;;10.80;99.90;;;;;;5115133;28;20047;-65
2022/06/01 04:44:14;;;;;;;21.58;19.27;;;10.80;99.90;;;;;;5112403;28;20054;-65
2022/06/01 04:46:39;;;;;;;21.25;18.88;;;10.30;99.90;;;;;;5102273;28;20048;-65
2022/06/01 04:49:07;;;;;;;20.73;18.40;;;10.80;99.90;;;;;;5117435;27;20044;-65
2022/06/01 04:51:33;;;;;;;22.20;19.83;;;10.80;99.90;;;;;;5092087;28;20044;-66
2022/06/01 04:53:59;;;;;;;21.98;19.73;;;10.90;99.90;;;;;;5125302;27;20077;-66
2022/06/01 04:56:25;;;;;;;22.15;19.55;;;10.80;99.90;;;;;;5112643;28;20055;-67
2022/06/01 04:58:50;;;;;;;22.67;19.23;;;10.90;99.90;;;;;;5127932;27;20082;-66
2022/06/01 05:01:19;;;;;;;21.92;19.65;;;10.90;99.90;;;;;;5101020;28;20051;-64
2022/06/01 05:03:44;;;;;;;22.23;19.55;;;12.10;99.90;;;;;;5110393;28;20496;-66
2022/06/01 05:06:10;;;;;;;22.60;19.45;;;10.90;99.90;;;;;;5114426;28;20048;-64
2022/06/01 05:08:36;;;;;;;22.08;18.63;;;11.00;99.90;;;;;;5096148;28;20055;-64
2022/06/01 05:11:02;;;;;;;21.90;19.40;;;11.00;99.90;;;;;;5105265;28;20056;-63
2022/06/01 05:13:28;;;;;;;21.55;19.35;;;11.00;99.90;;;;;;5131544;27;20079;-63
2022/06/01 05:15:57;;;;;;;20.75;18.55;;;11.00;99.90;;;;;;5102914;28;20086;-64
2022/06/01 05:18:23;;;;;;;21.65;19.15;;;11.00;99.90;;;;;;5124545;27;20059;-67
2022/06/01 05:20:49;;;;;;;22.15;19.35;;;11.00;99.90;;;;;;5101342;28;20445;-66
2022/06/01 05:23:17;;;;;;;20.08;18.08;;;11.00;99.90;;;;;;5108003;27;20121;-65
2022/06/01 05:25:45;;;;;;;19.75;17.63;;;11.00;99.90;;;;;;5090407;28;20047;-66
2022/06/01 05:28:12;;;;;;;21.85;19.15;;;11.00;99.90;;;;;;5126066;27;20131;-65
2022/06/01 05:30:37;;;;;;;23.30;20.33;;;11.10;99.90;;;;;;5094033;28;20109;-67
2022/06/01 05:33:04;;;;;;;23.23;20.48;;;11.10;99.90;;;;;;5120454;27;20052;-67
2022/06/01 05:35:29;;;;;;;20.95;18.73;;;11.20;99.90;;;;;;5086208;28;20059;-66
2022/06/01 05:38:01;;;;;;;21.23;18.92;;;11.20;99.90;;;;;;5082654;28;20624;-66
2022/06/01 05:40:30;;;;;;;20.85;17.27;;;11.20;99.90;;;;;;5096708;28;20419;-65
2022/06/01 05:42:59;;;;;;;18.13;16.23;;;11.30;99.90;;;;;;5086680;28;20125;-66
2022/06/01 05:45:26;;;;;;;18.75;16.45;;;11.30;99.90;;;;;;5088920;28;20504;-67
2022/06/01 05:47:52;;;;;;;18.35;16.45;;;11.40;99.90;;;;;;5083352;28;20116;-67
2022/06/01 05:50:18;;;;;;;17.98;16.10;;;11.50;99.90;;;;;;5081104;28;20055;-66
2022/06/01 05:52:44;;;;;;;18.48;16.48;;;11.60;99.90;;;;;;5080866;28;20464;-66
2022/06/01 05:55:12;;;;;;;20.08;17.65;;;11.60;99.90;;;;;;5088361;28;20048;-65
2022/06/01 05:57:39;;;;;;;19.83;17.73;;;11.80;99.90;;;;;;5124398;27;20048;-66
2022/06/01 06:00:09;;;;;;;20.33;18.23;;;12.10;99.90;;;;;;5120282;27;20066;-66
2022/06/01 06:02:35;;;;;;;20.55;18.35;;;12.40;99.90;;;;;;5072619;28;20056;-67
2022/06/01 06:05:01;;;;;;;21.60;19.15;;;12.50;99.90;;;;;;5088198;28;20101;-66
2022/06/01 06:07:26;;;;;;;22.88;19.23;;;11.80;99.90;;;;;;5073874;28;20057;-65
2022/06/01 06:09:52;;;;;;;24.27;19.35;;;12.50;99.90;;;;;;5073699;28;20060;-64
2022/06/01 06:12:18;;;;;;;22.17;19.90;;;12.40;99.90;;;;;;5110906;28;20059;-65
2022/06/01 06:14:43;;;;;;;24.15;21.05;;;12.40;99.90;;;;;;5097082;28;20048;-66
2022/06/01 06:17:09;;;;;;;23.58;21.05;;;12.30;99.90;;;;;;5089739;28;20480;-65
2022/06/01 06:19:38;;;;;;;23.05;20.65;;;12.60;99.90;;;;;;5112527;28;20100;-65
2022/06/01 06:22:06;;;;;;;23.77;21.27;;;12.90;99.90;;;;;;5113340;28;20369;-65
2022/06/01 06:24:32;;;;;;;24.23;21.65;;;12.90;99.90;;;;;;5113570;28;20083;-65
2022/06/01 06:26:58;;;;;;;22.10;19.65;;;13.00;99.90;;;;;;5142720;27;20062;-65
2022/06/01 06:29:23;;;;;;;22.20;19.88;;;12.90;99.90;;;;;;5104447;28;20048;-65
2022/06/01 06:31:49;;;;;;;21.85;19.55;;;12.90;99.90;;;;;;5091847;28;20086;-65
2022/06/01 06:34:16;;;;;;;21.15;18.95;;;12.70;99.90;;;;;;5100704;28;20043;-65
2022/06/01 06:36:44;;;;;;;21.60;19.33;;;12.90;99.90;;;;;;5112888;28;20528;-65
2022/06/01 06:39:10;;;;;;;21.08;18.88;;;12.90;99.90;;;;;;5111934;28;20055;-64
2022/06/01 06:41:36;;;;;;;20.80;18.60;;;13.00;99.90;;;;;;5107628;28;20063;-65
2022/06/01 06:44:02;;;;;;;20.58;18.13;;;12.90;99.90;;;;;;5146204;27;20040;-65
2022/06/01 06:46:28;;;;;;;21.35;19.02;;;13.10;99.90;;;;;;5136456;27;20126;-66
2022/06/01 06:48:53;;;;;;;21.08;18.98;;;13.10;99.90;;;;;;5093149;28;20154;-65
2022/06/01 06:51:21;;;;;;;20.55;18.45;;;13.20;99.90;;;;;;5130586;27;20040;-66
2022/06/01 06:53:47;;;;;;;20.70;18.48;;;13.20;99.90;;;;;;5111146;28;20043;-65
2022/06/01 06:56:15;;;;;;;19.20;17.20;;;13.40;99.90;;;;;;5095957;28;20060;-65
2022/06/01 06:58:41;;;;;;;17.33;15.45;;;13.50;99.90;;;;;;5098460;28;20055;-65
2022/06/01 07:01:06;;;;;;;17.42;15.40;;;13.70;99.90;;;;;;5092249;28;20047;-65
2022/06/01 07:03:32;;;;;;;16.65;15.05;;;13.80;99.90;;;;;;5095068;28;20392;-65
2022/06/01 07:06:12;;;;;;;16.13;14.25;;;13.70;99.90;;;;;;5096220;28;20407;-65
2022/06/01 07:08:50;;;;;;;15.63;14.10;;;13.80;99.90;;;;;;5108036;28;20048;-65
2022/06/01 07:11:18;;;;;;;15.32;13.82;;;14.20;99.90;;;;;;5105766;28;20036;-65
2022/06/01 07:13:45;;;;;;;15.63;14.10;;;14.40;99.90;;;;;;5094004;28;20052;-65
2022/06/01 07:16:18;;;;;;;15.35;13.75;;;14.70;99.90;;;;;;5095133;28;20075;-65
2022/06/01 07:18:45;;;;;;;;;;;15.00;99.90;;;;;;5095921;28;20094;-64
2022/06/01 07:21:11;;;;;;;14.30;12.68;;;15.20;99.90;;;;;;5094521;28;19920;-64
2022/06/01 07:23:38;;;;;;;13.25;11.88;;;15.40;99.90;;;;;;5094696;28;20167;-64
2022/06/01 07:26:07;;;;;;;13.77;12.48;;;15.60;99.90;;;;;;5095571;28;20067;-65
2022/06/01 07:28:34;;;;;;;14.75;12.63;;;15.80;99.90;;;;;;5096143;28;20124;-65
2022/06/01 07:30:59;;;;;;;13.25;11.95;;;15.70;99.90;;;;;;5093836;28;20059;-65
2022/06/01 07:33:28;;;;;;;15.82;14.32;;;15.60;99.90;;;;;;5079981;28;20044;-65
2022/06/01 07:35:58;;;;;;;16.08;14.45;;;15.70;99.90;;;;;;5094823;28;20399;-63
2022/06/01 07:43:57;;;;;;;13.13;11.85;;;15.60;99.90;;;;;;5075490;28;20044;-63
2022/06/01 07:46:23;;;;;;;13.38;12.07;;;15.40;99.90;;;;;;5073525;28;20044;-63
2022/06/01 07:48:49;;;;;;;12.20;11.00;;;15.20;99.90;;;;;;5073438;28;20080;-63
2022/06/01 07:51:16;;;;;;;12.13;10.93;;;15.00;99.90;;;;;;5074809;28;20044;-64
2022/06/01 07:53:41;;;;;;;11.90;10.80;;;14.80;99.90;;;;;;5075308;28;20511;-64
2022/06/01 07:56:08;;;;;;;13.25;11.95;;;14.60;99.90;;;;;;5092782;28;20052;-64
2022/06/01 07:58:35;;;;;;;13.77;12.38;;;14.40;99.90;;;;;;5095745;28;20051;-65
2022/06/01 08:01:01;;;;;;;14.30;11.60;;;14.20;99.90;;;;;;5095286;28;20044;-65
2022/06/01 08:03:26;;;;;;;10.15;4.55;;;13.80;99.90;;;;;;5111675;28;20139;-63
2022/06/01 08:05:52;;;;;;;4.05;2.50;;;13.20;99.90;;;;;;5094418;28;20473;-65
2022/06/01 08:08:17;;;;;;;3.05;2.40;;;12.80;99.90;;;;;;5094503;28;20060;-65
2022/06/01 08:10:43;;;;;;;3.95;3.00;;;12.50;99.90;;;;;;5095100;28;20433;-66
2022/06/01 08:13:12;;;;;;;4.90;3.70;;;12.20;99.90;;;;;;5094583;28;20123;-65
2022/06/01 08:15:45;;;;;;;5.15;4.65;;;12.00;99.90;;;;;;5095228;28;20052;-65
2022/06/01 08:18:13;;;;;;;9.80;4.20;;;11.70;99.90;;;;;;5076830;28;20481;-65
2022/06/01 08:20:39;;;;;;;5.85;4.30;;;11.70;99.90;;;;;;5094128;28;20055;-65
2022/06/01 08:23:06;;;;;;;5.72;5.10;;;11.70;99.90;;;;;;5094860;28;20126;-65
2022/06/01 08:25:32;;;;;;;5.13;4.28;;;11.60;99.90;;;;;;5110849;28;20055;-65
2022/06/01 08:27:58;;;;;;;5.55;4.43;;;11.40;99.90;;;;;;5127117;27;20040;-65
2022/06/01 08:30:26;;;;;;;5.38;4.88;;;11.60;99.90;;;;;;5093426;28;20096;-65
2022/06/01 08:32:54;;;;;;;8.73;4.88;;;11.60;99.90;;;;;;5094043;28;20084;-65
2022/06/01 08:35:24;;;;;;;8.57;5.20;;;11.60;99.90;;;;;;5094690;28;20462;-64
2022/06/01 08:37:50;;;;;;;5.82;5.13;;;11.60;99.90;;;;;;5094709;28;20044;-65
2022/06/01 08:40:19;;;;;;;5.50;5.00;;;11.60;99.90;;;;;;5093253;28;20404;-65
2022/06/01 08:42:53;;;;;;;5.75;4.40;;;11.60;99.90;;;;;;5110232;28;20133;-65
2022/06/01 08:45:22;;;;;;;6.40;4.60;;;11.40;99.90;;;;;;5109533;28;20074;-65
2022/06/01 08:47:48;;;;;;;5.13;4.32;;;11.60;99.90;;;;;;5094069;28;20044;-64
2022/06/01 08:50:21;;;;;;;5.15;4.18;;;11.60;99.90;;;;;;5094427;28;20141;-65
2022/06/01 08:52:47;;;;;;;9.80;6.18;;;11.90;99.90;;;;;;5109864;28;20166;-64
2022/06/01 08:55:16;;;;;;;6.90;4.55;;;12.20;99.90;;;;;;5110305;28;20075;-64
2022/06/01 08:57:49;;;;;;;4.75;3.30;;;12.40;99.90;;;;;;5094035;28;20149;-64
2022/06/01 09:00:19;;;;;;;;;;;12.60;99.90;;;;;;5094819;28;20052;-65
2022/06/01 09:02:53;;;;;;;2.92;2.22;;;12.70;99.90;;;;;;5093718;28;19919;-64
2022/06/01 09:05:37;;;;;;;3.83;3.38;;;12.90;99.90;;;;;;5094369;28;20062;-65
2022/06/01 09:08:32;;;;;;;4.28;3.78;;;12.90;99.90;;;;;;5093938;28;20040;-64
2022/06/01 09:11:11;;;;;;;4.43;3.97;;;12.90;99.90;;;;;;5094222;28;20366;-64
2022/06/01 09:13:59;;;;;;;5.78;4.40;;;13.10;99.90;;;;;;5109449;28;20048;-64
2022/06/01 09:16:41;;;;;;;3.85;3.55;;;13.40;99.90;;;;;;5106922;28;20105;-64
2022/06/01 09:19:14;;;;;;;5.00;4.60;;;13.70;99.90;;;;;;5092104;28;20501;-64
2022/06/01 09:24:43;;;;;;;4.47;4.07;;;15.10;99.90;;;;;;5089398;28;20472;-64
2022/06/01 09:27:12;;;;;;;5.13;4.65;;;14.50;99.90;;;;;;5092615;28;20490;-65
2022/06/01 09:29:47;;;;;;;5.95;5.20;;;14.80;99.90;;;;;;5093800;28;20119;-64
2022/06/01 09:32:34;;;;;;;5.82;5.22;;;14.50;99.90;;;;;;5091260;28;20072;-65
2022/06/01 09:35:10;;;;;;;5.85;5.25;;;14.40;99.90;;;;;;5091699;28;20403;-64
2022/06/01 09:37:41;;;;;;;6.10;5.50;;;14.30;99.90;;;;;;5090778;28;20101;-65
2022/06/01 09:40:32;;;;;;;6.68;5.50;;;14.20;99.90;;;;;;5093073;28;20532;-65
2022/06/01 09:43:01;;;;;;;5.90;5.30;;;14.50;99.90;;;;;;5092255;28;20143;-65
2022/06/01 09:45:38;;;;;;;6.32;5.45;;;14.40;99.90;;;;;;5126167;27;20127;-65
2022/06/01 09:48:23;;;;;;;5.78;5.25;;;14.30;99.90;;;;;;5091122;28;20063;-65
2022/06/01 09:51:01;;;;;;;6.13;5.38;;;15.20;99.90;;;;;;5073089;28;20041;-64
2022/06/01 09:53:40;;;;;;;6.18;5.55;;;14.20;99.90;;;;;;5073486;28;20063;-65
2022/06/01 09:56:06;;;;;;;5.88;5.38;;;14.10;99.90;;;;;;5085905;28;20134;-65
2022/06/01 10:07:19;;;;;;;5.22;4.75;;;13.70;99.90;;;;;;5074027;28;20049;-65
2022/06/01 10:09:51;;;;;;;6.53;5.20;;;13.70;99.90;;;;;;5087675;28;20052;-64
2022/06/01 10:12:43;;;;;;;6.70;5.55;;;13.80;99.90;;;;;;5092533;28;20055;-65
2022/06/01 10:15:28;;;;;;;6.67;5.30;;;13.70;99.90;;;;;;5091030;28;20399;-65
2022/06/01 10:18:11;;;;;;;6.43;5.70;;;14.10;99.90;;;;;;5092908;28;20051;-65
2022/06/01 10:20:55;;;;;;;5.10;4.60;;;14.50;99.90;;;;;;5090095;28;20055;-65
2022/06/01 10:23:56;;;;;;;4.45;3.97;;;14.70;99.90;;;;;;5092443;28;20052;-65
2022/06/01 10:26:30;;;;;;;4.40;4.00;;;14.80;99.90;;;;;;5109380;28;20060;-66
2022/06/01 10:29:13;;;;;;;4.80;4.30;;;14.80;99.90;;;;;;5093145;28;20054;-66
2022/06/01 10:31:42;;;;;;;4.60;4.20;;;14.90;99.90;;;;;;5091370;28;20174;-65
2022/06/01 10:34:26;;;;;;;4.50;3.90;;;14.80;99.90;;;;;;5090431;28;20052;-65
2022/06/01 10:37:23;;;;;;;4.60;4.20;;;14.90;99.90;;;;;;5108959;28;20102;-66
2022/06/01 10:40:00;;;;;;;4.72;3.75;;;15.00;99.90;;;;;;5090372;28;20381;-65
2022/06/01 10:45:26;;;;;;;3.97;3.67;;;15.70;99.90;;;;;;5072768;28;20045;-65
2022/06/01 10:48:12;;;;;;;4.07;3.78;;;15.90;99.90;;;;;;5070813;28;20052;-65
2022/06/01 10:50:49;;;;;;;5.18;4.38;;;15.90;99.90;;;;;;5072878;28;20512;-65
2022/06/01 10:53:33;;;;;;;4.35;4.05;;;15.80;99.90;;;;;;5072585;28;20335;-65
2022/06/01 10:55:59;;;;;;;5.38;4.32;;;15.60;99.90;;;;;;5076240;28;20142;-65
2022/06/01 10:58:26;;;;;;;6.75;2.20;;;15.40;99.90;;;;;;5090725;28;20048;-65
2022/06/01 11:00:58;;;;;;;5.63;2.30;;;14.80;99.90;;;;;;5098098;28;20044;-65
2022/06/01 11:03:58;;;;;;;3.17;2.03;;;14.30;99.90;;;;;;5109808;28;20481;-65
2022/06/01 11:07:01;;;;;;;3.72;2.20;;;13.80;99.90;;;;;;5113053;28;20051;-64
2022/06/01 11:09:38;;;;;;;3.10;2.80;;;13.70;99.90;;;;;;5073322;28;20052;-65
2022/06/01 11:12:19;;;;;;;2.45;2.00;;;14.00;99.90;;;;;;5134536;27;20055;-65
2022/06/01 11:15:14;;;;;;;4.03;1.95;;;14.30;99.90;;;;;;5106405;28;20121;-65
2022/06/01 11:17:45;;;;;;;2.22;2.03;;;14.60;99.90;;;;;;5100176;28;20129;-65
2022/06/01 11:20:17;;;;;;;2.70;2.47;;;14.70;99.90;;;;;;5092831;28;20063;-64
2022/06/01 11:22:49;;;;;;;2.10;1.90;;;14.70;99.90;;;;;;5108141;28;20093;-65
2022/06/01 11:25:39;;;;;;;3.30;2.10;;;14.70;99.90;;;;;;5093406;28;20051;-64
2022/06/01 11:28:29;;;;;;;2.38;2.17;;;14.70;99.90;;;;;;5097214;28;20047;-65
2022/06/01 11:31:11;;;;;;;2.65;2.10;;;14.60;99.90;;;;;;5096297;28;20059;-65
2022/06/01 11:33:53;;;;;;;2.40;2.20;;;14.60;99.90;;;;;;5075586;28;20447;-64
2022/06/01 11:36:37;;;;;;;2.65;2.45;;;14.50;99.90;;;;;;5075652;28;20286;-65
2022/06/01 11:39:35;;;;;;;2.83;2.20;;;14.40;99.90;;;;;;5075933;28;20056;-65
2022/06/01 11:42:19;;;;;;;3.47;2.05;;;14.20;99.90;;;;;;5100973;28;20083;-65
2022/06/01 11:45:14;;;;;;;3.25;2.40;;;13.80;99.90;;;;;;5109576;28;20091;-65
2022/06/01 11:47:49;;;;;;;2.92;2.55;;;13.50;99.90;;;;;;5094107;28;20048;-65
2022/06/01 11:50:36;;;;;;;4.15;2.60;;;13.20;99.90;;;;;;5091333;28;20048;-65
2022/06/01 11:53:07;;;;;;;3.45;2.63;;;13.00;99.90;;;;;;5116091;28;20055;-65
2022/06/01 11:55:36;;;;;;;2.58;1.98;;;12.80;99.90;;;;;;5116138;28;20044;-65
2022/06/01 11:58:18;;;;;;;2.22;1.70;;;12.60;99.90;;;;;;5115858;28;20056;-65
2022/06/01 12:00:54;;;;;;;2.40;2.20;;;12.60;99.90;;;;;;5111052;28;20044;-66
2022/06/01 12:03:30;;;;;;;2.40;2.20;;;12.50;99.90;;;;;;5114939;28;20047;-65
2022/06/01 12:06:04;;;;;;;1.80;1.70;;;12.50;99.90;;;;;;5096864;28;20396;-66
2022/06/01 12:08:53;;;;;;;2.35;1.83;;;12.60;99.90;;;;;;5075561;28;20106;-65
2022/06/01 12:11:40;;;;;;;1.88;1.60;;;12.70;99.90;;;;;;5089346;28;20120;-66
2022/06/01 12:14:30;;;;;;;2.50;2.25;;;12.80;99.90;;;;;;5114076;28;20059;-66
2022/06/01 12:17:18;;;;;;;2.55;2.35;;;13.00;99.90;;;;;;5089735;28;20123;-65
2022/06/01 12:19:47;;;;;;;2.90;2.50;;;13.10;99.90;;;;;;5090228;28;20404;-65
2022/06/01 12:28:33;;;;;;;3.10;1.80;;;13.90;99.90;;;;;;5094666;28;20047;-65
2022/06/01 12:31:23;;;;;;;2.42;2.22;;;14.20;99.90;;;;;;5106554;28;20448;-65
2022/06/01 12:34:03;;;;;;;2.40;2.17;;;14.50;99.90;;;;;;5115129;28;20059;-65
2022/06/01 12:36:48;;;;;;;1.70;1.60;;;14.80;99.90;;;;;;5098283;28;20056;-65
2022/06/01 12:39:20;;;;;;;3.15;1.67;;;15.00;99.90;;;;;;5090644;28;20083;-65
2022/06/01 12:41:51;;;;;;;1.50;1.40;;;15.30;99.90;;;;;;5091845;28;20084;-66
2022/06/01 12:44:17;;;;;;;1.38;1.27;;;15.40;99.90;;;;;;5094788;28;20051;-67
2022/06/01 12:46:48;;;;;;;1.90;1.70;;;15.50;99.90;;;;;;5099262;28;20123;-67
2022/06/01 12:49:35;;;;;;;2.55;1.60;;;15.70;99.90;;;;;;5124378;27;20051;-65
2022/06/01 12:52:03;;;;;;;2.25;1.58;;;15.80;99.90;;;;;;5092481;28;20082;-67
2022/06/01 12:54:38;;;;;;;1.73;1.48;;;15.90;99.90;;;;;;5106000;28;20119;-67
2022/06/01 12:57:07;;;;;;;1.70;1.38;;;16.10;99.90;;;;;;5092953;28;20503;-67
2022/06/01 13:00:24;;;;;;;2.00;1.90;;;16.30;99.90;;;;;;5089939;28;20049;-67
2022/06/01 13:02:51;;;;;;;1.98;1.88;;;16.40;99.90;;;;;;5086073;28;20048;-66
2022/06/01 13:05:46;;;;;;;2.20;2.10;;;17.60;99.90;;;;;;5109906;28;20052;-66
2022/06/01 13:08:40;;;;;;;2.00;1.90;;;16.00;99.90;;;;;;5092511;28;20476;-66
2022/06/01 13:11:18;;;;;;;2.35;2.05;;;15.20;99.90;;;;;;5098437;28;20040;-65
2022/06/01 13:13:44;;;;;;;2.00;1.90;;;14.90;99.90;;;;;;5099089;28;20075;-66
2022/06/01 13:16:10;;;;;;;2.80;2.25;;;14.60;99.90;;;;;;5085864;28;20059;-66
2022/06/01 13:18:44;;;;;;;2.63;2.05;;;14.60;99.90;;;;;;5106981;28;20052;-66
2022/06/01 13:21:32;;;;;;;3.05;1.85;;;14.50;99.90;;;;;;5104829;28;20146;-66
2022/06/01 13:24:32;;;;;;;1.33;1.23;;;14.60;99.90;;;;;;5094041;28;20105;-66
2022/06/01 13:26:58;;;;;;;1.08;1.08;;;14.80;99.90;;;;;;5092019;28;20052;-66
2022/06/01 13:29:31;;;;;;;1.58;1.48;;;15.00;99.90;;;;;;5092146;28;20048;-65
2022/06/01 13:32:26;;;;;;;2.22;1.30;;;15.30;99.90;;;;;;5111772;28;20087;-66
2022/06/01 13:34:54;;;;;;;1.40;1.30;;;15.60;99.90;;;;;;5121757;27;20052;-66